createdAt,value
2019-05-11T00:01:31.864Z,100722.43
2019-05-11T00:06:56.567Z,100719.06
2019-05-11T00:12:21.224Z,100718.16
2019-05-11T00:17:45.177Z,100721.66
2019-05-11T00:23:09.360Z,100726.48
2019-05-11T00:28:33.179Z,100731.98
2019-05-11T00:33:58.098Z,100719.89
2019-05-11T00:39:22.286Z,100715.81
2019-05-11T00:44:47.340Z,100721.78
2019-05-11T00:50:12.486Z,100710.05
2019-05-11T00:55:36.597Z,100705.19
2019-05-11T01:01:02.499Z,100706.95
2019-05-11T01:06:27.052Z,100701.73
2019-05-11T01:11:51.537Z,100691.21
2019-05-11T01:17:15.683Z,100676.37
2019-05-11T01:22:40.525Z,100677.48
2019-05-11T01:28:04.002Z,100676.55
2019-05-11T01:33:27.826Z,100671.37
2019-05-11T01:38:52.428Z,100682.56
2019-05-11T01:44:17.531Z,100697.24
2019-05-11T01:49:42.282Z,100699.04
2019-05-11T01:55:07.561Z,100695.37
2019-05-11T02:00:31.501Z,100687.17
2019-05-11T02:05:55.466Z,100673.69
2019-05-11T02:11:20.053Z,100674.03
2019-05-11T02:16:44.344Z,100658.68
2019-05-11T02:22:09.017Z,100666.38
2019-05-11T02:27:33.531Z,100658.67
2019-05-11T02:32:58.562Z,100651.93
2019-05-11T02:38:22.459Z,100649.98
2019-05-11T02:43:46.130Z,100646.16
2019-05-11T02:49:09.691Z,100655.05
2019-05-11T02:54:33.981Z,100656.78
2019-05-11T02:59:58.615Z,100664.56
2019-05-11T03:05:23.270Z,100671.91
2019-05-11T03:10:47.731Z,100681.82
2019-05-11T03:16:12.582Z,100677.48
2019-05-11T03:21:37.161Z,100685.56
2019-05-11T03:27:02.200Z,100690.03
2019-05-11T03:32:26.075Z,100699.47
2019-05-11T03:37:49.867Z,100713.29
2019-05-11T03:43:13.814Z,100708.75
2019-05-11T03:48:38.262Z,100712.72
2019-05-11T03:54:02.369Z,100702.00
2019-05-11T03:59:27.023Z,100688.13
2019-05-11T04:04:51.328Z,100685.47
2019-05-11T04:10:16.922Z,100693.80
2019-05-11T04:15:40.981Z,100700.64
2019-05-11T04:21:05.605Z,100716.56
2019-05-11T04:26:30.269Z,100707.99
2019-05-11T04:31:54.635Z,100710.77
2019-05-11T04:37:18.947Z,100698.33
2019-05-11T04:42:54.824Z,100695.17
2019-05-11T04:48:09.622Z,100696.11
2019-05-11T04:53:33.625Z,100688.27
2019-05-11T04:58:57.987Z,100698.11
2019-05-11T05:04:22.412Z,100684.57
2019-05-11T05:09:46.728Z,100691.45
2019-05-11T05:15:11.740Z,100691.88
2019-05-11T05:20:36.343Z,100693.72
2019-05-11T05:26:01.479Z,100691.66
2019-05-11T05:31:26.447Z,100683.86
2019-05-11T05:36:50.391Z,100684.50
2019-05-11T05:42:14.544Z,100685.52
2019-05-11T05:47:39.286Z,100687.40
2019-05-11T05:53:03.781Z,100680.51
2019-05-11T05:58:28.275Z,100682.70
2019-05-11T06:03:52.584Z,100684.98
2019-05-11T06:09:17.260Z,100687.84
2019-05-11T06:14:41.096Z,100693.70
2019-05-11T06:20:05.831Z,100689.72
2019-05-11T06:25:30.842Z,100685.73
2019-05-11T06:30:55.614Z,100680.91
2019-05-11T06:36:19.458Z,100686.95
2019-05-11T06:41:43.596Z,100682.95
2019-05-11T06:47:08.409Z,100684.43
2019-05-11T06:52:33.118Z,100681.94
2019-05-11T06:57:57.616Z,100680.48
2019-05-11T07:03:22.159Z,100682.36
2019-05-11T07:08:47.068Z,100683.83
2019-05-11T07:14:20.620Z,100671.64
2019-05-11T07:19:38.022Z,100679.78
2019-05-11T07:25:01.769Z,100669.50
2019-05-11T07:30:26.557Z,100668.45
2019-05-11T07:35:51.423Z,100665.33
2019-05-11T07:41:17.656Z,100670.25
2019-05-11T07:46:41.449Z,100670.82
2019-05-11T07:52:07.633Z,100670.69
2019-05-11T07:57:32.068Z,100665.86
2019-05-11T08:02:58.469Z,100667.16
2019-05-11T08:08:25.192Z,100668.83
2019-05-11T08:13:49.169Z,100658.34
2019-05-11T08:19:13.489Z,100663.59
2019-05-11T08:24:37.948Z,100655.37
2019-05-11T08:30:01.734Z,100656.52
2019-05-11T08:35:30.932Z,100658.70
2019-05-11T08:40:52.330Z,100646.85
2019-05-11T08:46:18.558Z,100653.27
2019-05-11T08:51:42.386Z,100646.25
2019-05-11T08:57:08.141Z,100654.33
2019-05-11T09:02:32.221Z,100654.36
2019-05-11T09:07:57.763Z,100649.69
2019-05-11T09:13:21.822Z,100627.98
2019-05-11T09:18:47.951Z,100630.13
2019-05-11T09:24:11.426Z,100634.28
2019-05-11T09:29:36.079Z,100637.22
2019-05-11T09:35:00.714Z,100635.16
2019-05-11T09:40:25.254Z,100639.08
2019-05-11T09:45:51.959Z,100638.52
2019-05-11T09:51:14.848Z,100638.61
2019-05-11T09:56:39.934Z,100637.77
2019-05-11T10:02:04.567Z,100632.30
2019-05-11T10:07:29.021Z,100631.80
2019-05-11T10:12:54.275Z,100634.94
2019-05-11T10:18:18.935Z,100630.50
2019-05-11T10:23:43.482Z,100637.55
2019-05-11T10:29:08.317Z,100631.30
2019-05-11T10:34:32.201Z,100630.78
2019-05-11T10:39:57.804Z,100634.91
2019-05-11T10:45:22.965Z,100643.44
2019-05-11T10:50:48.398Z,100634.61
2019-05-11T10:56:12.158Z,100629.07
2019-05-11T11:01:38.092Z,100630.59
2019-05-11T11:07:03.467Z,100626.61
2019-05-11T11:12:27.995Z,100625.81
2019-05-11T11:17:52.242Z,100629.14
2019-05-11T11:23:17.754Z,100624.81
2019-05-11T11:28:41.991Z,100622.34
2019-05-11T11:34:08.190Z,100626.11
2019-05-11T11:39:32.911Z,100626.45
2019-05-11T11:44:58.760Z,100629.41
2019-05-11T11:50:22.794Z,100629.09
2019-05-11T11:55:48.181Z,100631.14
2019-05-11T12:01:12.564Z,100633.48
2019-05-11T12:06:38.478Z,100633.34
2019-05-11T12:12:01.880Z,100634.55
2019-05-11T12:17:28.575Z,100634.10
2019-05-11T12:22:53.322Z,100631.80
2019-05-11T12:28:18.415Z,100628.88
2019-05-11T12:33:43.383Z,100629.01
2019-05-11T12:39:08.760Z,100625.36
2019-05-11T12:44:32.801Z,100624.69
2019-05-11T12:49:58.603Z,100630.83
2019-05-11T12:55:23.753Z,100619.91
2019-05-11T13:00:49.304Z,100632.14
2019-05-11T13:06:13.721Z,100630.41
2019-05-11T13:11:38.110Z,100636.13
2019-05-11T13:17:02.070Z,100637.64
2019-05-11T13:22:28.847Z,100644.23
2019-05-11T13:27:53.233Z,100644.53
2019-05-11T13:33:19.085Z,100648.30
2019-05-11T13:38:43.560Z,100653.58
2019-05-11T13:44:08.003Z,100660.33
2019-05-11T13:49:33.392Z,100661.92
2019-05-11T13:54:58.539Z,100662.41
2019-05-11T14:00:23.321Z,100674.52
2019-05-11T14:05:48.307Z,100676.55
2019-05-11T14:11:13.020Z,100682.08
2019-05-11T14:16:38.038Z,100682.97
2019-05-11T14:22:02.655Z,100685.31
2019-05-11T14:27:28.158Z,100682.20
2019-05-11T14:32:52.788Z,100697.69
2019-05-11T14:38:18.543Z,100701.50
2019-05-11T14:43:42.260Z,100709.34
2019-05-11T14:49:07.914Z,100713.94
2019-05-11T14:54:32.439Z,100724.69
2019-05-11T14:59:58.594Z,100720.98
2019-05-11T15:05:23.522Z,100728.92
2019-05-11T15:10:48.824Z,100735.66
2019-05-11T15:16:13.988Z,100738.86
2019-05-11T15:21:39.172Z,100732.11
2019-05-11T15:27:03.736Z,100748.87
2019-05-11T15:32:28.646Z,100754.29
2019-05-11T15:37:53.441Z,100761.98
2019-05-11T15:43:18.140Z,100762.70
2019-05-11T15:48:55.568Z,100766.47
2019-05-11T15:54:08.042Z,100771.94
2019-05-11T15:59:32.562Z,100777.31
2019-05-11T16:04:58.233Z,100783.33
2019-05-11T16:10:22.160Z,100791.22
2019-05-11T16:15:49.236Z,100795.79
2019-05-11T16:21:13.924Z,100788.59
2019-05-11T16:26:38.715Z,100802.38
2019-05-11T16:32:03.497Z,100808.52
2019-05-11T16:37:28.927Z,100804.91
2019-05-11T16:42:56.171Z,100792.39
2019-05-11T16:48:19.147Z,100795.02
2019-05-11T16:53:43.858Z,100812.31
2019-05-11T16:59:08.250Z,100805.88
2019-05-11T17:04:33.016Z,100835.66
2019-05-11T17:09:57.915Z,100849.02
2019-05-11T17:15:22.404Z,100849.27
2019-05-11T17:20:47.140Z,100833.98
2019-05-11T17:26:11.591Z,100833.97
2019-05-11T17:31:37.984Z,100836.23
2019-05-11T17:37:02.835Z,100861.58
2019-05-11T17:42:28.526Z,100892.74
2019-05-11T17:47:53.699Z,100905.69
2019-05-11T17:53:18.454Z,100927.27
2019-05-11T17:58:42.980Z,100917.89
2019-05-11T18:04:08.161Z,100916.68
2019-05-11T18:09:33.359Z,100924.39
2019-05-11T18:15:01.400Z,100936.62
2019-05-11T18:20:25.416Z,100943.36
2019-05-11T18:25:49.784Z,100962.00
2019-05-11T18:31:13.998Z,100966.70
2019-05-11T18:36:38.251Z,100969.50
2019-05-11T18:42:03.130Z,100973.77
2019-05-11T18:47:26.982Z,100984.78
2019-05-11T18:52:51.129Z,100992.38
2019-05-11T18:58:14.744Z,101011.64
2019-05-11T19:03:38.617Z,101024.03
2019-05-11T19:09:04.403Z,101029.09
2019-05-11T19:14:29.365Z,101035.42
2019-05-11T19:19:54.074Z,101042.54
2019-05-11T19:25:18.841Z,101058.83
2019-05-11T19:30:43.637Z,101074.62
2019-05-11T19:36:08.193Z,101084.55
2019-05-11T19:41:32.822Z,101096.62
2019-05-11T19:46:58.167Z,101100.20
2019-05-11T19:52:23.741Z,101110.22
2019-05-11T19:57:48.540Z,101114.52
2019-05-11T20:03:12.288Z,101121.66
2019-05-11T20:08:36.400Z,101130.28
2019-05-11T20:14:00.832Z,101129.20
2019-05-11T20:19:25.332Z,101134.67
2019-05-11T20:24:49.015Z,101133.75
2019-05-11T20:30:13.052Z,101142.28
2019-05-11T20:35:38.416Z,101149.66
2019-05-11T20:41:02.921Z,101156.69
2019-05-11T20:46:27.727Z,101167.45
2019-05-11T20:51:52.135Z,101171.22
2019-05-11T20:57:17.970Z,101181.02
2019-05-11T21:02:42.523Z,101185.41
2019-05-11T21:08:08.298Z,101194.48
2019-05-11T21:13:31.963Z,101206.75
2019-05-11T21:18:57.995Z,101231.33
2019-05-11T21:24:22.959Z,101241.16
2019-05-11T21:29:49.107Z,101243.48
2019-05-11T21:35:13.112Z,101245.62
2019-05-11T21:40:38.281Z,101248.89
2019-05-11T21:46:02.931Z,101260.39
2019-05-11T21:51:28.604Z,101276.02
2019-05-11T21:56:53.279Z,101282.16
2019-05-11T22:02:18.453Z,101303.20
2019-05-11T22:07:43.219Z,101305.34
2019-05-11T22:13:07.974Z,101307.67
2019-05-11T22:18:32.637Z,101308.22
2019-05-11T22:23:58.485Z,101300.00
2019-05-11T22:29:21.850Z,101308.20
2019-05-11T22:34:47.953Z,101316.35
2019-05-11T22:40:13.150Z,101327.29
2019-05-11T22:45:38.264Z,101347.39
2019-05-11T22:51:03.432Z,101351.95
2019-05-11T22:56:28.543Z,101357.19
2019-05-11T23:01:53.246Z,101360.82
2019-05-11T23:07:18.574Z,101370.28
2019-05-11T23:12:42.731Z,101370.64
2019-05-11T23:18:08.595Z,101380.00
2019-05-11T23:23:32.770Z,101385.83
2019-05-11T23:28:58.094Z,101397.25
2019-05-11T23:34:23.682Z,101404.88
2019-05-11T23:39:48.017Z,101406.19
2019-05-11T23:45:13.071Z,101402.27
2019-05-11T23:50:38.649Z,101417.06
2019-05-11T23:56:03.433Z,101414.14
